createdAt,value
2023-03-26T00:00:00.868Z,9.80
2023-03-26T00:01:00.858Z,10.20
2023-03-26T00:02:00.988Z,9.80
2023-03-26T00:03:00.877Z,9.40
2023-03-26T00:04:00.849Z,10.60
2023-03-26T00:05:00.802Z,11.00
2023-03-26T00:06:00.837Z,11.30
2023-03-26T00:07:00.816Z,10.40
2023-03-26T00:08:00.798Z,9.40
2023-03-26T00:09:00.788Z,10.50
2023-03-26T00:10:00.797Z,9.00
2023-03-26T00:11:01.249Z,9.90
2023-03-26T00:12:01.784Z,7.80
2023-03-26T00:13:00.778Z,8.80
2023-03-26T00:14:00.786Z,9.90
2023-03-26T00:15:00.756Z,9.70
2023-03-26T00:16:00.771Z,9.00
2023-03-26T00:17:00.768Z,10.10
2023-03-26T00:18:00.832Z,9.40
2023-03-26T00:19:00.754Z,10.30
2023-03-26T00:20:00.733Z,7.60
2023-03-26T00:21:00.719Z,9.10
2023-03-26T00:22:00.744Z,8.10
2023-03-26T00:23:00.692Z,9.40
2023-03-26T00:24:00.710Z,8.00
2023-03-26T00:25:00.713Z,7.20
2023-03-26T00:26:00.691Z,10.20
2023-03-26T00:27:00.708Z,9.40
2023-03-26T00:28:00.711Z,6.50
2023-03-26T00:29:00.765Z,9.20
2023-03-26T00:30:00.682Z,9.30
2023-03-26T00:31:00.718Z,7.30
2023-03-26T00:32:00.650Z,10.60
2023-03-26T00:33:00.684Z,6.60
2023-03-26T00:34:00.674Z,8.60
2023-03-26T00:35:00.653Z,8.90
2023-03-26T00:36:02.571Z,7.40
2023-03-26T00:37:00.651Z,8.40
2023-03-26T00:38:00.618Z,9.70
2023-03-26T00:39:00.611Z,7.90
2023-03-26T00:40:00.928Z,7.30
2023-03-26T00:41:00.616Z,7.30
2023-03-26T00:42:00.622Z,7.40
2023-03-26T00:43:00.590Z,6.60
2023-03-26T00:44:00.619Z,8.40
2023-03-26T00:45:00.634Z,6.30
2023-03-26T00:46:00.655Z,8.20
2023-03-26T00:47:00.572Z,7.90
2023-03-26T00:48:02.841Z,8.00
2023-03-26T00:49:01.581Z,5.80
2023-03-26T00:50:00.545Z,6.60
2023-03-26T00:51:00.592Z,7.30
2023-03-26T00:52:00.567Z,7.60
2023-03-26T00:53:00.556Z,5.90
2023-03-26T00:54:00.559Z,6.80
2023-03-26T00:55:00.558Z,5.70
2023-03-26T00:56:00.626Z,5.40
2023-03-26T00:57:00.530Z,6.10
2023-03-26T00:58:00.520Z,3.10
2023-03-26T00:59:00.520Z,4.70
2023-03-26T01:00:00.533Z,2.90
2023-03-26T01:01:00.507Z,5.30
2023-03-26T01:02:00.564Z,3.40
2023-03-26T01:03:00.593Z,3.90
2023-03-26T01:04:07.584Z,4.80
2023-03-26T01:05:02.530Z,5.40
2023-03-26T01:06:00.448Z,3.70
2023-03-26T01:07:00.456Z,2.60
2023-03-26T01:08:00.479Z,4.90
2023-03-26T01:09:00.552Z,2.70
2023-03-26T01:10:00.431Z,2.90
2023-03-26T01:11:00.438Z,5.70
2023-03-26T01:12:01.436Z,2.90
2023-03-26T01:13:00.435Z,1.80
2023-03-26T01:14:00.428Z,2.80
2023-03-26T01:15:00.418Z,2.40
2023-03-26T01:16:00.440Z,2.30
2023-03-26T01:17:00.414Z,3.30
2023-03-26T01:18:00.442Z,1.70
2023-03-26T01:19:00.383Z,1.40
2023-03-26T01:20:00.411Z,1.40
2023-03-26T01:21:00.371Z,2.00
2023-03-26T01:22:00.369Z,4.90
2023-03-26T01:23:00.419Z,2.20
2023-03-26T01:24:00.363Z,1.50
2023-03-26T01:25:00.359Z,2.00
2023-03-26T01:26:00.356Z,1.70
2023-03-26T01:27:00.355Z,1.80
2023-03-26T01:28:00.361Z,1.40
2023-03-26T01:29:00.356Z,1.60
2023-03-26T01:30:00.312Z,2.00
2023-03-26T01:31:00.308Z,1.90
2023-03-26T01:32:00.314Z,1.60
2023-03-26T01:33:00.375Z,2.60
2023-03-26T01:34:00.286Z,1.90
2023-03-26T01:35:00.303Z,1.50
2023-03-26T01:36:00.344Z,2.10
2023-03-26T01:37:00.282Z,1.30
2023-03-26T01:38:00.310Z,1.90
2023-03-26T01:39:00.543Z,1.40
2023-03-26T01:40:00.307Z,1.90
2023-03-26T01:41:00.280Z,2.00
2023-03-26T01:42:00.243Z,2.40
2023-03-26T01:43:00.247Z,1.20
2023-03-26T01:44:00.350Z,2.10
2023-03-26T01:45:00.240Z,1.70
2023-03-26T01:46:00.223Z,1.90
2023-03-26T01:47:00.262Z,1.50
2023-03-26T01:48:00.263Z,1.60
2023-03-26T01:49:00.211Z,2.10
2023-03-26T01:50:00.218Z,2.00
2023-03-26T01:51:00.214Z,1.70
2023-03-26T01:52:00.180Z,1.90
2023-03-26T01:53:00.215Z,1.70
2023-03-26T01:54:00.210Z,1.40
2023-03-26T01:55:00.182Z,1.20
2023-03-26T01:56:00.214Z,1.50
2023-03-26T01:57:00.328Z,1.20
2023-03-26T01:58:00.155Z,2.30
2023-03-26T01:59:00.158Z,1.10
2023-03-26T02:00:00.176Z,1.20
2023-03-26T02:01:00.433Z,1.60
2023-03-26T02:02:00.258Z,1.20
2023-03-26T02:03:00.222Z,1.10
2023-03-26T02:04:00.132Z,1.50
2023-03-26T02:05:00.153Z,1.60
2023-03-26T02:06:00.146Z,1.60
2023-03-26T02:07:00.105Z,1.40
2023-03-26T02:08:00.102Z,1.20
2023-03-26T02:09:00.108Z,1.10
2023-03-26T02:10:00.160Z,2.10
2023-03-26T02:11:00.113Z,1.20
2023-03-26T02:12:00.113Z,1.20
2023-03-26T02:13:00.069Z,1.30
2023-03-26T02:14:00.055Z,1.40
2023-03-26T02:15:00.041Z,1.20
2023-03-26T02:16:00.114Z,1.20
2023-03-26T02:17:00.036Z,1.20
2023-03-26T02:18:00.140Z,1.30
2023-03-26T02:19:00.024Z,1.40
2023-03-26T02:20:00.031Z,1.30
2023-03-26T02:21:00.031Z,1.10
2023-03-26T02:22:00.068Z,1.30
2023-03-26T02:22:59.999Z,1.30
2023-03-26T02:23:59.992Z,1.40
2023-03-26T02:24:59.981Z,1.50
2023-03-26T02:26:00.140Z,1.70
2023-03-26T02:26:59.974Z,2.20
2023-03-26T02:27:59.969Z,1.50
2023-03-26T02:28:59.955Z,2.30
2023-03-26T02:29:59.960Z,2.70
2023-03-26T02:30:59.962Z,4.70
2023-03-26T02:32:00.055Z,3.40
2023-03-26T02:33:00.969Z,2.60
2023-03-26T02:33:59.937Z,4.60
2023-03-26T02:34:59.993Z,2.10
2023-03-26T02:36:00.022Z,2.50
2023-03-26T02:36:59.922Z,2.10
2023-03-26T02:37:59.933Z,2.20
2023-03-26T02:38:59.890Z,1.50
2023-03-26T02:39:59.895Z,1.80
2023-03-26T02:40:59.900Z,1.70
2023-03-26T02:41:59.891Z,2.00
2023-03-26T02:42:59.883Z,1.40
2023-03-26T02:43:59.866Z,2.60
2023-03-26T02:44:59.877Z,1.40
2023-03-26T02:45:59.944Z,2.00
2023-03-26T02:46:59.840Z,2.90
2023-03-26T02:47:59.922Z,2.40
2023-03-26T02:48:59.857Z,1.70
2023-03-26T02:49:59.837Z,1.70
2023-03-26T02:50:59.822Z,2.50
2023-03-26T02:51:59.814Z,1.60
2023-03-26T02:52:59.814Z,2.60
2023-03-26T02:53:59.822Z,1.70
2023-03-26T02:54:59.820Z,1.60
2023-03-26T02:55:59.792Z,2.40
2023-03-26T02:56:59.793Z,1.60
2023-03-26T02:57:59.804Z,1.90
2023-03-26T02:58:59.814Z,1.70
2023-03-26T02:59:59.776Z,2.20
2023-03-26T03:00:59.794Z,2.30
2023-03-26T03:01:59.825Z,1.80
2023-03-26T03:02:59.830Z,2.30
2023-03-26T03:03:59.813Z,2.50
2023-03-26T03:04:59.738Z,1.80
2023-03-26T03:05:59.758Z,1.70
2023-03-26T03:06:59.783Z,1.70
2023-03-26T03:07:59.727Z,2.50
2023-03-26T03:08:59.743Z,2.20
2023-03-26T03:09:59.731Z,2.60
2023-03-26T03:10:59.723Z,2.80
2023-03-26T03:11:59.718Z,2.30
2023-03-26T03:12:59.737Z,2.10
2023-03-26T03:13:59.696Z,2.80
2023-03-26T03:14:59.688Z,2.60
2023-03-26T03:15:59.675Z,3.10
2023-03-26T03:16:59.694Z,2.00
2023-03-26T03:17:59.723Z,2.30
2023-03-26T03:18:59.681Z,2.20
2023-03-26T03:19:59.735Z,2.00
2023-03-26T03:20:59.645Z,5.00
2023-03-26T03:21:59.647Z,3.50
2023-03-26T03:22:59.664Z,2.20
2023-03-26T03:24:00.134Z,3.20
2023-03-26T03:24:59.636Z,5.10
2023-03-26T03:25:59.736Z,3.00
2023-03-26T03:26:59.635Z,2.00
2023-03-26T03:27:59.612Z,3.50
2023-03-26T03:28:59.670Z,4.10
2023-03-26T03:29:59.608Z,2.10
2023-03-26T03:30:59.627Z,2.60
2023-03-26T03:31:59.629Z,3.20
2023-03-26T03:32:59.613Z,2.30
2023-03-26T03:33:59.575Z,2.10
2023-03-26T03:34:59.602Z,4.30
2023-03-26T03:35:59.610Z,2.50
2023-03-26T03:36:59.577Z,2.40
2023-03-26T03:37:59.558Z,3.30
2023-03-26T03:38:59.541Z,3.50
2023-03-26T03:39:59.549Z,2.70
2023-03-26T03:40:59.528Z,3.10
2023-03-26T03:41:59.553Z,3.70
2023-03-26T03:42:59.551Z,3.20
2023-03-26T03:43:59.515Z,4.30
2023-03-26T03:44:59.550Z,4.80
2023-03-26T03:45:59.515Z,3.30
2023-03-26T03:46:59.501Z,4.50
2023-03-26T03:47:59.520Z,3.70
2023-03-26T03:48:59.517Z,3.80
2023-03-26T03:49:59.471Z,3.90
2023-03-26T03:50:59.496Z,7.50
2023-03-26T03:51:59.458Z,4.00
2023-03-26T03:52:59.473Z,4.90
2023-03-26T03:53:59.472Z,4.40
2023-03-26T03:54:59.453Z,4.80
2023-03-26T03:55:59.450Z,3.70
2023-03-26T03:56:59.552Z,3.50
2023-03-26T03:57:59.450Z,5.30
2023-03-26T03:58:59.428Z,5.90
2023-03-26T03:59:59.463Z,4.20
2023-03-26T04:00:59.413Z,7.10
2023-03-26T04:01:59.430Z,7.00
2023-03-26T04:02:59.465Z,6.50
2023-03-26T04:03:59.547Z,4.60
2023-03-26T04:04:59.401Z,7.90
2023-03-26T04:05:59.400Z,6.30
2023-03-26T04:06:59.376Z,5.90
2023-03-26T04:07:59.369Z,6.30
2023-03-26T04:08:59.421Z,5.30
2023-03-26T04:09:59.359Z,7.40
2023-03-26T04:10:59.351Z,7.20
2023-03-26T04:11:59.360Z,7.70
2023-03-26T04:12:59.345Z,4.90
2023-03-26T04:13:59.341Z,6.30
2023-03-26T04:14:59.334Z,4.50
2023-03-26T04:15:59.549Z,5.90
2023-03-26T04:16:59.329Z,5.50
2023-03-26T04:17:59.316Z,4.80
2023-03-26T04:18:59.329Z,6.80
2023-03-26T04:19:59.302Z,4.50
2023-03-26T04:20:59.296Z,5.10
2023-03-26T04:21:59.273Z,7.80
2023-03-26T04:22:59.276Z,8.40
2023-03-26T04:23:59.304Z,6.10
2023-03-26T04:24:59.258Z,9.40
2023-03-26T04:25:59.262Z,7.60
2023-03-26T04:26:59.249Z,10.40
2023-03-26T04:27:59.245Z,6.40
2023-03-26T04:28:59.237Z,6.40
2023-03-26T04:29:59.253Z,12.70
2023-03-26T04:30:59.285Z,7.80
2023-03-26T04:31:59.230Z,8.00
2023-03-26T04:32:59.249Z,11.70
2023-03-26T04:33:59.215Z,5.60
2023-03-26T04:34:59.303Z,6.40
2023-03-26T04:35:59.250Z,5.80
2023-03-26T04:36:59.228Z,6.80
2023-03-26T04:37:59.200Z,9.20
2023-03-26T04:38:59.179Z,10.50
2023-03-26T04:39:59.215Z,11.40
2023-03-26T04:40:59.196Z,12.80
2023-03-26T04:41:59.175Z,9.90
2023-03-26T04:42:59.165Z,10.90
2023-03-26T04:43:59.165Z,7.40
2023-03-26T04:44:59.158Z,8.50
2023-03-26T04:45:59.175Z,9.30
2023-03-26T04:46:59.199Z,7.30
2023-03-26T04:47:59.195Z,8.10
2023-03-26T04:48:59.117Z,10.00
2023-03-26T04:49:59.133Z,10.70
2023-03-26T04:50:59.129Z,10.10
2023-03-26T04:51:59.137Z,8.70
2023-03-26T04:52:59.116Z,12.40
2023-03-26T04:53:59.104Z,10.60
2023-03-26T04:54:59.131Z,8.30
2023-03-26T04:55:59.078Z,9.40
2023-03-26T04:56:59.117Z,9.60
2023-03-26T04:57:59.138Z,8.10
2023-03-26T04:58:59.065Z,10.00
2023-03-26T04:59:59.064Z,8.40
2023-03-26T05:00:59.085Z,8.60
2023-03-26T05:02:00.146Z,11.50
2023-03-26T05:02:59.035Z,16.30
2023-03-26T05:03:59.088Z,9.40
2023-03-26T05:04:59.025Z,10.40
2023-03-26T05:05:59.090Z,11.30
2023-03-26T05:07:00.028Z,11.50
2023-03-26T05:07:59.050Z,9.20
2023-03-26T05:08:59.017Z,9.00
2023-03-26T05:09:58.998Z,8.50
2023-03-26T05:10:59.003Z,9.70
2023-03-26T05:11:59.017Z,8.10
2023-03-26T05:12:59.832Z,10.70
2023-03-26T05:13:59.028Z,10.20
2023-03-26T05:14:58.987Z,8.10
2023-03-26T05:15:58.999Z,13.90
2023-03-26T05:16:58.964Z,13.20
2023-03-26T05:17:59.055Z,11.50
2023-03-26T05:18:58.976Z,10.30
2023-03-26T05:19:58.979Z,7.90
2023-03-26T05:20:58.949Z,12.00
2023-03-26T05:21:58.920Z,8.90
2023-03-26T05:22:58.924Z,11.60
2023-03-26T05:23:58.925Z,12.70
2023-03-26T05:24:58.917Z,13.10
2023-03-26T05:25:58.912Z,14.00
2023-03-26T05:26:58.928Z,11.30
2023-03-26T05:27:58.900Z,14.70
2023-03-26T05:28:58.907Z,13.70
2023-03-26T05:29:58.940Z,12.10
2023-03-26T05:30:58.887Z,15.40
2023-03-26T05:31:58.876Z,9.40
2023-03-26T05:32:58.973Z,10.10
2023-03-26T05:33:58.853Z,6.90
2023-03-26T05:34:58.853Z,10.50
2023-03-26T05:35:58.930Z,10.60
2023-03-26T05:36:58.835Z,10.00
2023-03-26T05:37:58.830Z,13.00
2023-03-26T05:38:58.854Z,15.40
2023-03-26T05:39:58.829Z,11.90
2023-03-26T05:40:58.829Z,12.30
2023-03-26T05:41:58.808Z,14.80
2023-03-26T05:42:58.827Z,14.00
2023-03-26T05:43:58.801Z,14.90
2023-03-26T05:44:58.794Z,10.80
2023-03-26T05:45:58.798Z,12.70
2023-03-26T05:46:58.785Z,17.30
2023-03-26T05:47:58.813Z,12.80
2023-03-26T05:48:58.769Z,13.40
2023-03-26T05:49:58.757Z,13.90
2023-03-26T05:50:58.764Z,11.10
2023-03-26T05:51:58.771Z,12.80
2023-03-26T05:52:58.758Z,12.70
2023-03-26T05:53:58.747Z,18.60
2023-03-26T05:54:58.771Z,16.50
2023-03-26T05:55:58.766Z,14.50
2023-03-26T05:56:58.778Z,17.40
2023-03-26T05:57:58.709Z,19.20
2023-03-26T05:58:58.719Z,14.00
2023-03-26T05:59:58.718Z,20.60
2023-03-26T06:00:58.720Z,15.80
2023-03-26T06:01:58.691Z,17.50
2023-03-26T06:02:58.848Z,17.00
2023-03-26T06:03:58.774Z,15.30
2023-03-26T06:04:58.701Z,17.60
2023-03-26T06:05:58.694Z,18.30
2023-03-26T06:06:58.694Z,19.60
2023-03-26T06:07:58.672Z,17.20
2023-03-26T06:09:01.548Z,13.60
2023-03-26T06:09:58.639Z,18.90
2023-03-26T06:10:58.644Z,14.50
2023-03-26T06:12:33.673Z,14.60
2023-03-26T06:13:33.654Z,16.30
2023-03-26T06:13:58.670Z,13.90
2023-03-26T06:14:58.616Z,15.80
2023-03-26T06:15:58.710Z,15.10
2023-03-26T06:16:58.611Z,13.80
2023-03-26T06:17:58.633Z,17.10
2023-03-26T06:18:58.676Z,16.30
2023-03-26T06:19:58.592Z,15.50
2023-03-26T06:20:58.605Z,15.50
2023-03-26T06:21:58.557Z,12.00
2023-03-26T06:22:58.574Z,13.30
2023-03-26T06:23:58.571Z,17.00
2023-03-26T06:24:58.578Z,14.20
2023-03-26T06:25:58.521Z,16.50
2023-03-26T06:26:59.532Z,16.10
2023-03-26T06:27:58.543Z,15.30
2023-03-26T06:28:58.597Z,17.50
2023-03-26T06:29:58.552Z,18.90
2023-03-26T06:30:58.524Z,16.70
2023-03-26T06:32:09.201Z,13.20
2023-03-26T06:33:00.560Z,15.60
2023-03-26T06:33:58.530Z,14.80
2023-03-26T06:34:58.576Z,17.30
2023-03-26T06:35:58.540Z,16.80
2023-03-26T06:36:58.503Z,13.00
2023-03-26T06:37:58.609Z,14.00
2023-03-26T06:38:58.470Z,15.80
2023-03-26T06:39:58.480Z,15.90
2023-03-26T06:40:58.464Z,17.90
2023-03-26T06:41:58.450Z,16.70
2023-03-26T06:43:08.342Z,18.20
2023-03-26T06:43:59.452Z,16.00
2023-03-26T06:44:58.434Z,15.80
2023-03-26T06:45:58.501Z,18.40
2023-03-26T06:46:58.472Z,14.70
2023-03-26T06:47:58.416Z,14.60
2023-03-26T06:48:58.429Z,19.60
2023-03-26T06:49:58.460Z,14.50
2023-03-26T06:51:38.559Z,17.20
2023-03-26T06:51:59.540Z,15.50
2023-03-26T06:52:58.459Z,17.20
2023-03-26T06:53:58.467Z,13.70
2023-03-26T06:54:58.439Z,13.50
2023-03-26T06:55:58.436Z,13.70
2023-03-26T06:56:58.434Z,15.90
2023-03-26T06:57:58.422Z,17.40
2023-03-26T06:58:58.475Z,15.60
2023-03-26T06:59:59.611Z,20.70
2023-03-26T07:00:58.497Z,12.20
2023-03-26T07:01:58.395Z,14.50
2023-03-26T07:02:58.352Z,14.60
2023-03-26T07:03:59.828Z,16.00
2023-03-26T07:04:58.309Z,13.30
2023-03-26T07:05:58.320Z,16.00
2023-03-26T07:06:58.293Z,14.70
2023-03-26T07:07:58.332Z,16.30
2023-03-26T07:08:58.278Z,14.10
2023-03-26T07:09:58.271Z,15.50
2023-03-26T07:10:58.309Z,17.30
2023-03-26T07:11:58.304Z,22.50
2023-03-26T07:12:58.274Z,14.30
2023-03-26T07:13:58.250Z,13.40
2023-03-26T07:15:00.351Z,16.20
2023-03-26T07:15:58.319Z,25.20
2023-03-26T07:16:58.242Z,17.30
2023-03-26T07:17:58.277Z,13.00
2023-03-26T07:18:58.233Z,14.90
2023-03-26T07:19:58.228Z,14.30
2023-03-26T07:20:58.200Z,15.80
2023-03-26T07:21:58.197Z,17.80
2023-03-26T07:22:58.196Z,11.70
2023-03-26T07:23:58.213Z,15.30
2023-03-26T07:24:58.166Z,13.50
2023-03-26T07:25:58.198Z,14.60
2023-03-26T07:26:58.149Z,16.50
2023-03-26T07:27:58.189Z,11.60
2023-03-26T07:29:03.626Z,11.80
2023-03-26T07:30:00.137Z,15.90
2023-03-26T07:30:58.123Z,15.80
2023-03-26T07:31:58.165Z,14.90
2023-03-26T07:32:58.149Z,13.30
2023-03-26T07:33:58.116Z,17.60
2023-03-26T07:34:58.088Z,16.90
2023-03-26T07:35:58.202Z,19.60
2023-03-26T07:36:58.099Z,16.70
2023-03-26T07:37:58.074Z,15.50
2023-03-26T07:38:58.095Z,15.90
2023-03-26T07:39:58.819Z,15.60
2023-03-26T07:40:58.061Z,16.20
2023-03-26T07:41:58.079Z,15.70
2023-03-26T07:42:58.060Z,14.60
2023-03-26T07:43:58.074Z,17.60
2023-03-26T07:44:58.017Z,12.40
2023-03-26T07:45:58.048Z,12.60
2023-03-26T07:46:58.033Z,18.10
2023-03-26T07:47:58.073Z,15.60
2023-03-26T07:48:58.013Z,16.50
2023-03-26T07:49:58.036Z,15.70
2023-03-26T07:50:58.343Z,15.00
2023-03-26T07:51:57.984Z,24.50
2023-03-26T07:52:58.045Z,13.80
2023-03-26T07:53:57.963Z,21.30
2023-03-26T07:54:58.147Z,15.70
2023-03-26T07:55:57.979Z,16.00
2023-03-26T07:56:59.141Z,16.20
2023-03-26T07:57:58.932Z,15.70
2023-03-26T07:58:58.925Z,15.60
2023-03-26T07:59:58.903Z,16.10
2023-03-26T08:00:57.950Z,18.00
2023-03-26T08:01:57.971Z,15.90
2023-03-26T08:02:58.036Z,15.90
2023-03-26T08:03:58.039Z,12.70
2023-03-26T08:04:57.970Z,15.40
2023-03-26T08:05:57.891Z,16.00
2023-03-26T08:06:57.931Z,16.40
2023-03-26T08:07:57.919Z,11.30
2023-03-26T08:08:57.875Z,14.10
2023-03-26T08:09:57.864Z,13.50
2023-03-26T08:10:58.061Z,13.90
2023-03-26T08:11:57.878Z,17.70
2023-03-26T08:12:57.862Z,12.90
2023-03-26T08:13:57.857Z,15.50
2023-03-26T08:14:57.897Z,14.60
2023-03-26T08:15:58.550Z,13.80
2023-03-26T08:16:57.882Z,13.80
2023-03-26T08:17:58.057Z,15.20
2023-03-26T08:18:57.807Z,16.10
2023-03-26T08:19:57.803Z,14.10
2023-03-26T08:20:57.785Z,14.10
2023-03-26T08:21:57.797Z,13.00
2023-03-26T08:22:58.354Z,15.10
2023-03-26T08:23:57.811Z,16.10
2023-03-26T08:24:57.772Z,18.80
2023-03-26T08:25:57.767Z,14.20
2023-03-26T08:26:57.809Z,14.00
2023-03-26T08:27:57.786Z,16.70
2023-03-26T08:28:57.772Z,17.60
2023-03-26T08:29:57.789Z,14.30
2023-03-26T08:30:58.043Z,13.40
2023-03-26T08:31:57.707Z,15.50
2023-03-26T08:32:57.741Z,15.10
2023-03-26T08:33:57.690Z,13.40
2023-03-26T08:34:57.695Z,15.40
2023-03-26T08:35:57.789Z,14.30
2023-03-26T08:36:57.684Z,14.30
2023-03-26T08:37:57.674Z,14.10
2023-03-26T08:38:57.652Z,17.00
2023-03-26T08:39:57.665Z,15.60
2023-03-26T08:40:58.937Z,13.80
2023-03-26T08:41:57.664Z,14.40
2023-03-26T08:42:57.667Z,13.50
2023-03-26T08:43:57.678Z,12.10
2023-03-26T08:44:57.622Z,14.90
2023-03-26T08:45:57.620Z,12.30
2023-03-26T08:46:57.608Z,15.90
2023-03-26T08:47:57.607Z,17.50
2023-03-26T08:48:57.636Z,16.10
2023-03-26T08:49:57.607Z,14.40
2023-03-26T08:50:57.802Z,16.40
2023-03-26T08:51:57.658Z,19.50
2023-03-26T08:52:59.102Z,70.90
2023-03-26T08:53:57.587Z,19.80
2023-03-26T08:54:57.549Z,14.50
2023-03-26T08:55:57.541Z,16.90
2023-03-26T08:56:57.668Z,13.60
2023-03-26T08:57:57.525Z,13.50
2023-03-26T08:58:57.606Z,17.20
2023-03-26T08:59:59.695Z,32.30
2023-03-26T09:00:57.608Z,15.10
2023-03-26T09:01:57.550Z,16.20
2023-03-26T09:02:57.553Z,13.70
2023-03-26T09:03:57.510Z,16.30
2023-03-26T09:04:57.602Z,17.50
2023-03-26T09:05:57.470Z,14.10
2023-03-26T09:06:57.503Z,16.20
2023-03-26T09:07:57.493Z,14.70
2023-03-26T09:08:57.446Z,17.20
2023-03-26T09:09:57.477Z,16.20
2023-03-26T09:10:57.563Z,15.80
2023-03-26T09:11:57.459Z,17.90
2023-03-26T09:12:57.491Z,14.90
2023-03-26T09:13:57.515Z,14.30
2023-03-26T09:14:57.437Z,14.90
2023-03-26T09:15:57.506Z,14.60
2023-03-26T09:16:57.397Z,17.80
2023-03-26T09:17:58.144Z,16.10
2023-03-26T09:18:58.593Z,13.90
2023-03-26T09:19:57.382Z,13.80
2023-03-26T09:20:57.745Z,15.30
2023-03-26T09:21:57.391Z,14.30
2023-03-26T09:22:57.409Z,15.20
2023-03-26T09:23:57.392Z,14.20
2023-03-26T09:24:57.357Z,15.10
2023-03-26T09:25:57.364Z,13.20
2023-03-26T09:26:57.364Z,12.10
2023-03-26T09:27:57.356Z,12.90
2023-03-26T09:28:57.330Z,13.30
2023-03-26T09:29:57.369Z,16.20
2023-03-26T09:30:57.405Z,12.10
2023-03-26T09:31:57.377Z,10.40
2023-03-26T09:32:57.314Z,13.50
2023-03-26T09:33:57.352Z,15.10
2023-03-26T09:34:57.300Z,16.00
2023-03-26T09:35:57.368Z,12.90
2023-03-26T09:36:57.342Z,13.90
2023-03-26T09:37:58.089Z,13.10
2023-03-26T09:38:57.396Z,13.80
2023-03-26T09:39:58.364Z,13.10
2023-03-26T09:40:57.444Z,15.90
2023-03-26T09:41:57.302Z,11.40
2023-03-26T09:42:57.262Z,13.80
2023-03-26T09:43:57.235Z,20.20
2023-03-26T09:44:57.228Z,15.00
2023-03-26T09:45:57.252Z,17.10
2023-03-26T09:46:57.225Z,14.20
2023-03-26T09:47:57.206Z,16.60
2023-03-26T09:48:57.248Z,15.60
2023-03-26T09:49:57.181Z,15.90
2023-03-26T09:50:57.505Z,16.60
2023-03-26T09:51:57.180Z,14.90
2023-03-26T09:52:57.304Z,12.00
2023-03-26T09:53:57.174Z,12.30
2023-03-26T09:54:57.164Z,14.90
2023-03-26T09:55:57.312Z,13.90
2023-03-26T09:56:57.257Z,12.80
2023-03-26T09:57:57.175Z,14.20
2023-03-26T09:58:57.172Z,12.80
2023-03-26T09:59:57.152Z,15.90
2023-03-26T10:00:57.444Z,13.70
2023-03-26T10:01:57.158Z,12.50
2023-03-26T10:02:57.168Z,14.80
2023-03-26T10:03:57.190Z,13.50
2023-03-26T10:04:57.104Z,16.40
2023-03-26T10:05:57.072Z,15.30
2023-03-26T10:06:57.085Z,12.90
2023-03-26T10:07:57.062Z,14.20
2023-03-26T10:08:57.076Z,14.00
2023-03-26T10:09:57.058Z,17.90
2023-03-26T10:10:57.255Z,15.20
2023-03-26T10:11:57.204Z,12.30
2023-03-26T10:13:05.042Z,16.80
2023-03-26T10:13:59.075Z,14.60
2023-03-26T10:14:57.007Z,14.40
2023-03-26T10:15:57.113Z,12.80
2023-03-26T10:16:57.119Z,13.80
2023-03-26T10:17:57.018Z,16.40
2023-03-26T10:18:57.052Z,13.00
2023-03-26T10:19:56.990Z,17.60
2023-03-26T10:20:57.082Z,14.80
2023-03-26T10:21:56.965Z,15.30
2023-03-26T10:22:57.041Z,12.40
2023-03-26T10:23:56.993Z,15.00
2023-03-26T10:24:56.975Z,14.00
2023-03-26T10:25:56.919Z,16.70
2023-03-26T10:27:09.861Z,20.10
2023-03-26T10:27:57.918Z,16.30
2023-03-26T10:28:56.924Z,21.20
2023-03-26T10:29:57.098Z,20.50
2023-03-26T10:30:57.278Z,18.10
2023-03-26T10:31:57.000Z,15.40
2023-03-26T10:32:57.098Z,16.00
2023-03-26T10:33:56.876Z,17.80
2023-03-26T10:34:56.884Z,14.30
2023-03-26T10:35:57.807Z,14.10
2023-03-26T10:36:56.859Z,22.50
2023-03-26T10:37:56.894Z,18.20
2023-03-26T10:38:56.831Z,19.40
2023-03-26T10:39:56.895Z,18.90
2023-03-26T10:40:56.973Z,18.70
2023-03-26T10:41:56.826Z,15.20
2023-03-26T10:42:56.892Z,14.20
2023-03-26T10:44:07.379Z,14.00
2023-03-26T10:44:58.802Z,14.40
2023-03-26T10:45:56.836Z,13.80
2023-03-26T10:46:56.794Z,13.50
2023-03-26T10:47:56.815Z,14.40
2023-03-26T10:48:56.768Z,13.40
2023-03-26T10:49:56.877Z,14.80
2023-03-26T10:50:56.945Z,13.50
2023-03-26T10:51:56.764Z,12.40
2023-03-26T10:52:56.764Z,13.80
2023-03-26T10:53:56.760Z,13.10
2023-03-26T10:54:56.752Z,14.00
2023-03-26T10:55:56.730Z,14.70
2023-03-26T10:56:56.792Z,17.10
2023-03-26T10:57:56.804Z,14.00
2023-03-26T10:58:56.698Z,13.90
2023-03-26T10:59:56.773Z,15.20
2023-03-26T11:00:56.876Z,13.10
2023-03-26T11:01:56.722Z,20.40
2023-03-26T11:02:56.706Z,16.70
2023-03-26T11:03:56.693Z,19.20
2023-03-26T11:04:56.721Z,32.50
2023-03-26T11:05:56.732Z,30.10
2023-03-26T11:06:56.636Z,27.00
2023-03-26T11:07:56.774Z,18.80
2023-03-26T11:08:56.691Z,20.10
2023-03-26T11:09:56.769Z,17.00
2023-03-26T11:10:56.817Z,18.00
2023-03-26T11:11:56.633Z,20.50
2023-03-26T11:12:56.679Z,14.10
2023-03-26T11:13:56.844Z,17.30
2023-03-26T11:14:56.712Z,12.10
2023-03-26T11:15:56.593Z,12.50
2023-03-26T11:16:56.568Z,12.80
2023-03-26T11:17:56.623Z,12.10
2023-03-26T11:18:56.570Z,11.90
2023-03-26T11:19:56.570Z,11.50
2023-03-26T11:20:56.785Z,11.50
2023-03-26T11:21:57.569Z,12.90
2023-03-26T11:22:56.547Z,11.80
2023-03-26T11:24:05.394Z,12.30
2023-03-26T11:24:57.543Z,15.80
2023-03-26T11:25:56.571Z,10.50
2023-03-26T11:26:56.503Z,11.50
2023-03-26T11:27:56.487Z,10.70
2023-03-26T11:29:04.127Z,9.60
2023-03-26T11:29:58.432Z,10.10
2023-03-26T11:30:56.714Z,10.80
2023-03-26T11:31:56.557Z,10.50
2023-03-26T11:32:57.512Z,9.90
2023-03-26T11:33:56.584Z,9.70
2023-03-26T11:34:56.464Z,9.00
2023-03-26T11:35:56.461Z,10.80
2023-03-26T11:36:56.469Z,13.50
2023-03-26T11:37:56.433Z,8.50
2023-03-26T11:38:56.435Z,8.30
2023-03-26T11:39:56.807Z,8.00
2023-03-26T11:40:58.043Z,8.90
2023-03-26T11:41:56.750Z,6.60
2023-03-26T11:42:56.472Z,8.40
2023-03-26T11:43:56.456Z,10.20
2023-03-26T11:44:56.500Z,11.80
2023-03-26T11:45:56.528Z,10.80
2023-03-26T11:46:56.517Z,11.10
2023-03-26T11:47:56.432Z,6.10
2023-03-26T11:48:56.361Z,11.50
2023-03-26T11:49:56.407Z,14.30
2023-03-26T11:50:56.607Z,14.90
2023-03-26T11:51:56.359Z,16.80
2023-03-26T11:52:56.349Z,13.30
2023-03-26T11:53:56.341Z,13.70
2023-03-26T11:54:56.324Z,15.60
2023-03-26T11:55:56.295Z,11.80
2023-03-26T11:57:05.018Z,14.20
2023-03-26T11:57:57.395Z,11.50
2023-03-26T11:58:56.280Z,7.70
2023-03-26T11:59:57.870Z,6.80
2023-03-26T12:00:57.496Z,8.80
2023-03-26T12:01:56.755Z,13.00
2023-03-26T12:02:56.290Z,7.10
2023-03-26T12:03:57.263Z,8.40
2023-03-26T12:04:56.285Z,7.90
2023-03-26T12:05:56.269Z,3.50
2023-03-26T12:06:56.267Z,10.50
2023-03-26T12:07:56.297Z,4.00
2023-03-26T12:08:56.285Z,5.60
2023-03-26T12:09:56.281Z,6.30
2023-03-26T12:10:56.367Z,16.80
2023-03-26T12:11:56.218Z,16.90
2023-03-26T12:12:56.227Z,35.90
2023-03-26T12:13:56.348Z,5.30
2023-03-26T12:14:56.283Z,4.50
2023-03-26T12:15:56.188Z,35.70
2023-03-26T12:16:57.187Z,25.50
2023-03-26T12:17:57.271Z,3.30
2023-03-26T12:18:56.190Z,18.20
2023-03-26T12:19:56.168Z,7.20
2023-03-26T12:20:56.234Z,4.80
2023-03-26T12:21:56.154Z,16.80
2023-03-26T12:22:56.128Z,31.40
2023-03-26T12:23:56.304Z,45.30
2023-03-26T12:24:56.142Z,20.10
2023-03-26T12:25:56.093Z,11.60
2023-03-26T12:26:56.104Z,20.00
2023-03-26T12:27:56.091Z,18.40
2023-03-26T12:28:56.145Z,17.70
2023-03-26T12:29:56.112Z,24.30
2023-03-26T12:30:56.198Z,20.60
2023-03-26T12:31:56.182Z,39.90
2023-03-26T12:32:56.080Z,83.50
2023-03-26T12:33:58.084Z,31.80
2023-03-26T12:34:56.075Z,25.70
2023-03-26T12:35:56.116Z,20.20
2023-03-26T12:36:56.033Z,16.40
2023-03-26T12:37:56.101Z,92.50
2023-03-26T12:40:06.970Z,27.80
2023-03-26T12:40:09.298Z,18.30
2023-03-26T12:40:57.044Z,8.00
2023-03-26T12:44:43.806Z,10.10
2023-03-26T12:44:47.905Z,4.90
2023-03-26T12:44:55.848Z,5.50
2023-03-26T12:44:59.148Z,7.30
2023-03-26T12:46:03.751Z,10.00
2023-03-26T12:47:58.312Z,6.10
2023-03-26T12:48:03.772Z,9.10
2023-03-26T12:48:58.108Z,6.40
2023-03-26T12:49:55.957Z,7.90
2023-03-26T12:50:56.204Z,6.50
2023-03-26T12:51:55.980Z,3.70
2023-03-26T12:52:55.937Z,2.00
2023-03-26T12:53:55.975Z,3.70
2023-03-26T12:54:55.963Z,2.10
2023-03-26T12:55:55.940Z,2.70
2023-03-26T12:57:12.132Z,3.80
2023-03-26T12:57:56.983Z,2.60
2023-03-26T12:58:55.900Z,2.50
2023-03-26T12:59:55.902Z,2.70
2023-03-26T13:00:56.242Z,3.90
2023-03-26T13:01:55.887Z,3.00
2023-03-26T13:02:55.993Z,4.20